sensor_id;sensor_type;location;lat;lon;timestamp;temperature;humidity
14119;DHT22;7138;49.246;9.100;2023-06-01T00:02:10;15.20;98.00
14119;DHT22;7138;49.246;9.100;2023-06-01T00:04:38;15.10;98.70
14119;DHT22;7138;49.246;9.100;2023-06-01T00:07:06;15.00;98.80
14119;DHT22;7138;49.246;9.100;2023-06-01T00:09:32;14.90;99.30
14119;DHT22;7138;49.246;9.100;2023-06-01T00:11:58;14.80;99.30
14119;DHT22;7138;49.246;9.100;2023-06-01T00:14:24;14.80;99.70
14119;DHT22;7138;49.246;9.100;2023-06-01T00:16:50;14.80;99.70
14119;DHT22;7138;49.246;9.100;2023-06-01T00:19:17;14.70;99.60
14119;DHT22;7138;49.246;9.100;2023-06-01T00:21:44;14.70;99.50
14119;DHT22;7138;49.246;9.100;2023-06-01T00:24:10;14.80;99.50
14119;DHT22;7138;49.246;9.100;2023-06-01T00:26:36;14.90;99.90
14119;DHT22;7138;49.246;9.100;2023-06-01T00:29:01;14.80;99.90
14119;DHT22;7138;49.246;9.100;2023-06-01T00:31:27;14.70;99.90
14119;DHT22;7138;49.246;9.100;2023-06-01T00:33:53;14.70;99.90
14119;DHT22;7138;49.246;9.100;2023-06-01T00:36:19;14.70;99.90
14119;DHT22;7138;49.246;9.100;2023-06-01T00:38:47;14.70;99.90
14119;DHT22;7138;49.246;9.100;2023-06-01T00:41:12;14.60;99.90
14119;DHT22;7138;49.246;9.100;2023-06-01T00:43:38;14.60;99.90
14119;DHT22;7138;49.246;9.100;2023-06-01T00:46:05;14.50;99.90
14119;DHT22;7138;49.246;9.100;2023-06-01T00:48:31;14.40;99.90
14119;DHT22;7138;49.246;9.100;2023-06-01T00:50:57;14.40;99.90
14119;DHT22;7138;49.246;9.100;2023-06-01T00:53:24;14.30;99.90
14119;DHT22;7138;49.246;9.100;2023-06-01T00:55:52;14.30;99.90
14119;DHT22;7138;49.246;9.100;2023-06-01T00:58:18;14.30;99.90
14119;DHT22;7138;49.246;9.100;2023-06-01T01:00:44;14.30;99.90
14119;DHT22;7138;49.246;9.100;2023-06-01T01:03:13;14.30;99.90
14119;DHT22;7138;49.246;9.100;2023-06-01T01:05:41;14.20;99.90
14119;DHT22;7138;49.246;9.100;2023-06-01T01:08:12;14.20;99.90
14119;DHT22;7138;49.246;9.100;2023-06-01T01:10:46;14.10;99.90
14119;DHT22;7138;49.246;9.100;2023-06-01T01:13:23;14.10;99.90
14119;DHT22;7138;49.246;9.100;2023-06-01T01:15:59;14.10;99.90
14119;DHT22;7138;49.246;9.100;2023-06-01T01:18:33;14.20;99.90
14119;DHT22;7138;49.246;9.100;2023-06-01T01:21:03;14.10;99.90
14119;DHT22;7138;49.246;9.100;2023-06-01T01:24:18;14.00;99.90
14119;DHT22;7138;49.246;9.100;2023-06-01T01:27:04;14.00;99.90
14119;DHT22;7138;49.246;9.100;2023-06-01T01:29:42;13.90;99.90
14119;DHT22;7138;49.246;9.100;2023-06-01T01:32:11;13.90;99.90
14119;DHT22;7138;49.246;9.100;2023-06-01T01:34:40;13.80;99.90
14119;DHT22;7138;49.246;9.100;2023-06-01T01:37:10;13.80;99.90
14119;DHT22;7138;49.246;9.100;2023-06-01T01:39:36;13.70;99.90
14119;DHT22;7138;49.246;9.100;2023-06-01T01:42:02;13.70;99.90
14119;DHT22;7138;49.246;9.100;2023-06-01T01:44:28;13.60;99.90
14119;DHT22;7138;49.246;9.100;2023-06-01T01:46:58;13.70;99.90
14119;DHT22;7138;49.246;9.100;2023-06-01T01:49:39;13.80;99.90
14119;DHT22;7138;49.246;9.100;2023-06-01T01:52:12;13.70;99.90
14119;DHT22;7138;49.246;9.100;2023-06-01T01:54:42;13.70;99.90
14119;DHT22;7138;49.246;9.100;2023-06-01T01:57:12;13.70;99.90
14119;DHT22;7138;49.246;9.100;2023-06-01T01:59:40;13.70;99.90
14119;DHT22;7138;49.246;9.100;2023-06-01T02:02:09;13.80;99.90
14119;DHT22;7138;49.246;9.100;2023-06-01T02:04:38;13.80;99.90
14119;DHT22;7138;49.246;9.100;2023-06-01T02:07:05;13.90;99.90
14119;DHT22;7138;49.246;9.100;2023-06-01T02:09:31;13.80;99.90
14119;DHT22;7138;49.246;9.100;2023-06-01T02:11:57;13.70;99.90
14119;DHT22;7138;49.246;9.100;2023-06-01T02:14:23;13.70;99.90
14119;DHT22;7138;49.246;9.100;2023-06-01T02:16:48;13.70;99.90
14119;DHT22;7138;49.246;9.100;2023-06-01T02:19:16;13.70;99.90
14119;DHT22;7138;49.246;9.100;2023-06-01T02:21:42;13.60;99.90
14119;DHT22;7138;49.246;9.100;2023-06-01T02:24:08;13.60;99.90
14119;DHT22;7138;49.246;9.100;2023-06-01T02:26:34;13.50;99.90
14119;DHT22;7138;49.246;9.100;2023-06-01T02:29:01;13.50;99.90
14119;DHT22;7138;49.246;9.100;2023-06-01T02:31:28;13.50;99.90
14119;DHT22;7138;49.246;9.100;2023-06-01T02:33:54;13.50;99.90
14119;DHT22;7138;49.246;9.100;2023-06-01T02:36:21;13.50;99.90
14119;DHT22;7138;49.246;9.100;2023-06-01T02:38:49;13.50;99.90
14119;DHT22;7138;49.246;9.100;2023-06-01T02:41:15;13.40;99.90
14119;DHT22;7138;49.246;9.100;2023-06-01T02:43:41;13.40;99.90
14119;DHT22;7138;49.246;9.100;2023-06-01T02:46:06;13.30;99.90
14119;DHT22;7138;49.246;9.100;2023-06-01T02:48:32;13.40;99.90
14119;DHT22;7138;49.246;9.100;2023-06-01T02:50:58;13.30;99.90
14119;DHT22;7138;49.246;9.100;2023-06-01T02:53:25;13.20;99.90
14119;DHT22;7138;49.246;9.100;2023-06-01T02:55:53;13.10;99.90
14119;DHT22;7138;49.246;9.100;2023-06-01T02:58:19;13.20;99.90
14119;DHT22;7138;49.246;9.100;2023-06-01T03:00:45;13.10;99.90
14119;DHT22;7138;49.246;9.100;2023-06-01T03:03:12;13.10;99.90
14119;DHT22;7138;49.246;9.100;2023-06-01T03:05:41;13.00;99.90
14119;DHT22;7138;49.246;9.100;2023-06-01T03:08:08;12.90;99.90
14119;DHT22;7138;49.246;9.100;2023-06-01T03:10:35;12.90;99.90
14119;DHT22;7138;49.246;9.100;2023-06-01T03:13:01;12.80;99.90
14119;DHT22;7138;49.246;9.100;2023-06-01T03:15:27;12.80;99.90
14119;DHT22;7138;49.246;9.100;2023-06-01T03:17:53;12.70;99.90
14119;DHT22;7138;49.246;9.100;2023-06-01T03:20:19;12.70;99.90
14119;DHT22;7138;49.246;9.100;2023-06-01T03:22:45;12.60;99.90
14119;DHT22;7138;49.246;9.100;2023-06-01T03:25:12;12.60;99.90
14119;DHT22;7138;49.246;9.100;2023-06-01T03:27:39;12.60;99.90
14119;DHT22;7138;49.246;9.100;2023-06-01T03:30:07;12.60;99.90
14119;DHT22;7138;49.246;9.100;2023-06-01T03:32:36;12.50;99.90
14119;DHT22;7138;49.246;9.100;2023-06-01T03:35:03;12.60;99.90
14119;DHT22;7138;49.246;9.100;2023-06-01T03:37:29;12.60;99.90
14119;DHT22;7138;49.246;9.100;2023-06-01T03:39:55;12.60;99.90
14119;DHT22;7138;49.246;9.100;2023-06-01T03:42:21;12.60;99.90
14119;DHT22;7138;49.246;9.100;2023-06-01T03:44:48;12.60;99.90
14119;DHT22;7138;49.246;9.100;2023-06-01T03:47:14;12.70;99.90
14119;DHT22;7138;49.246;9.100;2023-06-01T03:49:40;12.60;99.90
14119;DHT22;7138;49.246;9.100;2023-06-01T03:52:06;12.60;99.90
14119;DHT22;7138;49.246;9.100;2023-06-01T03:54:32;12.50;99.90
14119;DHT22;7138;49.246;9.100;2023-06-01T03:56:58;12.50;99.90
14119;DHT22;7138;49.246;9.100;2023-06-01T03:59:24;12.60;99.90
14119;DHT22;7138;49.246;9.100;2023-06-01T04:01:51;12.60;99.90
14119;DHT22;7138;49.246;9.100;2023-06-01T04:04:17;12.70;99.90
14119;DHT22;7138;49.246;9.100;2023-06-01T04:06:48;12.60;99.90
14119;DHT22;7138;49.246;9.100;2023-06-01T04:09:15;12.60;99.90
14119;DHT22;7138;49.246;9.100;2023-06-01T04:11:41;12.60;99.90
14119;DHT22;7138;49.246;9.100;2023-06-01T04:14:07;12.60;99.90
14119;DHT22;7138;49.246;9.100;2023-06-01T04:16:32;12.60;99.90
14119;DHT22;7138;49.246;9.100;2023-06-01T04:19:00;12.70;99.90
14119;DHT22;7138;49.246;9.100;2023-06-01T04:21:26;12.70;99.90
14119;DHT22;7138;49.246;9.100;2023-06-01T04:23:51;12.70;99.90
14119;DHT22;7138;49.246;9.100;2023-06-01T04:26:17;12.80;99.90
14119;DHT22;7138;49.246;9.100;2023-06-01T04:28:44;12.80;99.90
14119;DHT22;7138;49.246;9.100;2023-06-01T04:31:11;12.80;99.90
14119;DHT22;7138;49.246;9.100;2023-06-01T04:33:42;12.90;99.90
14119;DHT22;7138;49.246;9.100;2023-06-01T04:36:11;12.90;99.90
14119;DHT22;7138;49.246;9.100;2023-06-01T04:38:40;13.00;99.90
14119;DHT22;7138;49.246;9.100;2023-06-01T04:41:07;13.10;99.90
14119;DHT22;7138;49.246;9.100;2023-06-01T04:43:36;13.20;99.90
14119;DHT22;7138;49.246;9.100;2023-06-01T04:46:04;13.30;99.90
14119;DHT22;7138;49.246;9.100;2023-06-01T04:48:30;13.30;99.90
14119;DHT22;7138;49.246;9.100;2023-06-01T04:50:57;13.40;99.90
14119;DHT22;7138;49.246;9.100;2023-06-01T04:53:25;13.40;99.90
14119;DHT22;7138;49.246;9.100;2023-06-01T04:55:52;13.70;99.90
14119;DHT22;7138;49.246;9.100;2023-06-01T04:58:19;13.80;99.90
14119;DHT22;7138;49.246;9.100;2023-06-01T05:00:45;14.10;99.90
14119;DHT22;7138;49.246;9.100;2023-06-01T05:03:11;14.30;99.90
14119;DHT22;7138;49.246;9.100;2023-06-01T05:05:37;14.80;99.90
14119;DHT22;7138;49.246;9.100;2023-06-01T05:08:03;16.80;99.90
14119;DHT22;7138;49.246;9.100;2023-06-01T05:10:30;17.60;99.90
14119;DHT22;7138;49.246;9.100;2023-06-01T05:12:56;18.80;99.90
14119;DHT22;7138;49.246;9.100;2023-06-01T05:15:22;19.80;99.90
14119;DHT22;7138;49.246;9.100;2023-06-01T05:17:48;20.60;99.90
14119;DHT22;7138;49.246;9.100;2023-06-01T05:20:13;21.10;99.90
14119;DHT22;7138;49.246;9.100;2023-06-01T05:22:40;21.50;99.90
14119;DHT22;7138;49.246;9.100;2023-06-01T05:25:06;21.80;99.90
14119;DHT22;7138;49.246;9.100;2023-06-01T05:27:34;21.80;99.40
14119;DHT22;7138;49.246;9.100;2023-06-01T05:30:00;22.00;99.60
14119;DHT22;7138;49.246;9.100;2023-06-01T05:32:26;22.00;99.90
14119;DHT22;7138;49.246;9.100;2023-06-01T05:34:52;22.30;98.90
14119;DHT22;7138;49.246;9.100;2023-06-01T05:37:18;22.50;99.40
14119;DHT22;7138;49.246;9.100;2023-06-01T05:39:43;22.40;97.80
14119;DHT22;7138;49.246;9.100;2023-06-01T05:42:09;22.80;97.80
14119;DHT22;7138;49.246;9.100;2023-06-01T05:44:36;23.10;96.70
14119;DHT22;7138;49.246;9.100;2023-06-01T05:47:02;22.70;97.00
14119;DHT22;7138;49.246;9.100;2023-06-01T05:49:28;22.70;95.80
14119;DHT22;7138;49.246;9.100;2023-06-01T05:51:57;23.20;96.60
14119;DHT22;7138;49.246;9.100;2023-06-01T05:54:23;23.80;96.80
14119;DHT22;7138;49.246;9.100;2023-06-01T05:56:49;22.60;96.00
14119;DHT22;7138;49.246;9.100;2023-06-01T05:59:15;23.00;96.00
14119;DHT22;7138;49.246;9.100;2023-06-01T06:01:43;23.50;96.00
14119;DHT22;7138;49.246;9.100;2023-06-01T06:04:13;23.70;95.60
14119;DHT22;7138;49.246;9.100;2023-06-01T06:06:39;23.70;95.50
14119;DHT22;7138;49.246;9.100;2023-06-01T06:09:05;24.20;96.60
14119;DHT22;7138;49.246;9.100;2023-06-01T06:11:31;23.80;95.20
14119;DHT22;7138;49.246;9.100;2023-06-01T06:13:57;24.40;94.90
14119;DHT22;7138;49.246;9.100;2023-06-01T06:16:23;23.50;95.50
14119;DHT22;7138;49.246;9.100;2023-06-01T06:18:50;24.70;95.40
14119;DHT22;7138;49.246;9.100;2023-06-01T06:21:16;24.80;95.70
14119;DHT22;7138;49.246;9.100;2023-06-01T06:23:42;25.00;95.70
14119;DHT22;7138;49.246;9.100;2023-06-01T06:26:08;24.40;94.10
14119;DHT22;7138;49.246;9.100;2023-06-01T06:28:34;24.20;93.50
14119;DHT22;7138;49.246;9.100;2023-06-01T06:31:00;24.90;93.30
14119;DHT22;7138;49.246;9.100;2023-06-01T06:33:27;22.90;94.20
14119;DHT22;7138;49.246;9.100;2023-06-01T06:35:54;23.40;94.90
14119;DHT22;7138;49.246;9.100;2023-06-01T06:38:20;24.20;94.40
14119;DHT22;7138;49.246;9.100;2023-06-01T06:40:46;23.90;94.00
14119;DHT22;7138;49.246;9.100;2023-06-01T06:43:12;23.40;94.10
14119;DHT22;7138;49.246;9.100;2023-06-01T06:45:39;23.70;94.60
14119;DHT22;7138;49.246;9.100;2023-06-01T06:48:05;24.10;96.70
14119;DHT22;7138;49.246;9.100;2023-06-01T06:50:31;23.60;94.50
14119;DHT22;7138;49.246;9.100;2023-06-01T06:52:58;23.20;94.90
14119;DHT22;7138;49.246;9.100;2023-06-01T06:55:25;23.10;94.60
14119;DHT22;7138;49.246;9.100;2023-06-01T06:57:52;22.00;94.50
14119;DHT22;7138;49.246;9.100;2023-06-01T07:00:20;22.70;96.50
14119;DHT22;7138;49.246;9.100;2023-06-01T07:02:46;23.00;97.80
14119;DHT22;7138;49.246;9.100;2023-06-01T07:05:12;22.50;96.10
14119;DHT22;7138;49.246;9.100;2023-06-01T07:07:38;22.20;97.60
14119;DHT22;7138;49.246;9.100;2023-06-01T07:10:07;22.40;96.10
14119;DHT22;7138;49.246;9.100;2023-06-01T07:12:33;23.10;99.40
14119;DHT22;7138;49.246;9.100;2023-06-01T07:15:00;23.60;98.80
14119;DHT22;7138;49.246;9.100;2023-06-01T07:17:26;23.70;97.10
14119;DHT22;7138;49.246;9.100;2023-06-01T07:19:52;23.80;99.00
14119;DHT22;7138;49.246;9.100;2023-06-01T07:22:17;22.90;95.20
14119;DHT22;7138;49.246;9.100;2023-06-01T07:24:45;23.00;99.00
14119;DHT22;7138;49.246;9.100;2023-06-01T07:27:13;22.80;96.90
14119;DHT22;7138;49.246;9.100;2023-06-01T07:29:39;23.30;97.10
14119;DHT22;7138;49.246;9.100;2023-06-01T07:32:06;23.00;96.20
14119;DHT22;7138;49.246;9.100;2023-06-01T07:34:32;23.90;99.90
14119;DHT22;7138;49.246;9.100;2023-06-01T07:36:59;23.00;95.40
14119;DHT22;7138;49.246;9.100;2023-06-01T07:39:25;23.50;99.90
14119;DHT22;7138;49.246;9.100;2023-06-01T07:41:51;23.70;97.10
14119;DHT22;7138;49.246;9.100;2023-06-01T07:44:20;23.90;98.90
14119;DHT22;7138;49.246;9.100;2023-06-01T07:46:46;23.70;95.90
14119;DHT22;7138;49.246;9.100;2023-06-01T07:49:12;23.60;95.10
14119;DHT22;7138;49.246;9.100;2023-06-01T07:51:39;23.80;97.50
14119;DHT22;7138;49.246;9.100;2023-06-01T07:54:05;23.80;96.40
14119;DHT22;7138;49.246;9.100;2023-06-01T07:56:32;23.80;97.00
14119;DHT22;7138;49.246;9.100;2023-06-01T07:58:58;24.00;97.00
14119;DHT22;7138;49.246;9.100;2023-06-01T08:01:25;24.40;95.40
14119;DHT22;7138;49.246;9.100;2023-06-01T08:03:51;24.40;94.00
14119;DHT22;7138;49.246;9.100;2023-06-01T08:06:17;24.50;97.00
14119;DHT22;7138;49.246;9.100;2023-06-01T08:08:44;25.00;96.90
14119;DHT22;7138;49.246;9.100;2023-06-01T08:11:11;24.30;95.70
14119;DHT22;7138;49.246;9.100;2023-06-01T08:13:37;24.50;95.50
14119;DHT22;7138;49.246;9.100;2023-06-01T08:16:04;25.30;96.10
14119;DHT22;7138;49.246;9.100;2023-06-01T08:18:31;24.30;94.40
14119;DHT22;7138;49.246;9.100;2023-06-01T08:20:57;24.80;96.70
14119;DHT22;7138;49.246;9.100;2023-06-01T08:23:23;25.20;98.00
14119;DHT22;7138;49.246;9.100;2023-06-01T08:25:49;25.30;92.90
14119;DHT22;7138;49.246;9.100;2023-06-01T08:28:15;25.40;93.00
14119;DHT22;7138;49.246;9.100;2023-06-01T08:30:41;25.40;94.10
14119;DHT22;7138;49.246;9.100;2023-06-01T08:33:07;25.60;93.30
14119;DHT22;7138;49.246;9.100;2023-06-01T08:35:34;24.70;92.50
14119;DHT22;7138;49.246;9.100;2023-06-01T08:38:00;25.10;92.30
14119;DHT22;7138;49.246;9.100;2023-06-01T08:40:26;25.80;93.40
14119;DHT22;7138;49.246;9.100;2023-06-01T08:42:57;25.40;89.80
14119;DHT22;7138;49.246;9.100;2023-06-01T08:45:25;25.00;91.30
14119;DHT22;7138;49.246;9.100;2023-06-01T08:47:54;25.30;93.80
14119;DHT22;7138;49.246;9.100;2023-06-01T08:50:22;25.00;91.80
14119;DHT22;7138;49.246;9.100;2023-06-01T08:52:52;25.20;96.00
14119;DHT22;7138;49.246;9.100;2023-06-01T08:55:21;25.00;91.80
14119;DHT22;7138;49.246;9.100;2023-06-01T08:57:48;24.60;93.20
14119;DHT22;7138;49.246;9.100;2023-06-01T09:00:15;24.90;94.00
14119;DHT22;7138;49.246;9.100;2023-06-01T09:02:42;25.60;95.90
14119;DHT22;7138;49.246;9.100;2023-06-01T09:05:09;25.40;95.60
14119;DHT22;7138;49.246;9.100;2023-06-01T09:07:35;25.50;94.70
14119;DHT22;7138;49.246;9.100;2023-06-01T09:10:02;25.70;94.40
14119;DHT22;7138;49.246;9.100;2023-06-01T09:12:29;26.30;93.20
14119;DHT22;7138;49.246;9.100;2023-06-01T09:15:10;25.50;90.20
14119;DHT22;7138;49.246;9.100;2023-06-01T09:17:38;26.20;93.80
14119;DHT22;7138;49.246;9.100;2023-06-01T09:20:06;26.30;92.50
14119;DHT22;7138;49.246;9.100;2023-06-01T09:22:41;26.30;92.60
14119;DHT22;7138;49.246;9.100;2023-06-01T09:25:10;26.20;92.70
14119;DHT22;7138;49.246;9.100;2023-06-01T09:27:45;26.40;92.90
14119;DHT22;7138;49.246;9.100;2023-06-01T09:30:13;26.10;91.60
14119;DHT22;7138;49.246;9.100;2023-06-01T09:32:39;26.50;92.10
14119;DHT22;7138;49.246;9.100;2023-06-01T09:35:07;26.40;93.60
14119;DHT22;7138;49.246;9.100;2023-06-01T09:37:33;26.40;92.10
14119;DHT22;7138;49.246;9.100;2023-06-01T09:40:00;26.30;87.20
14119;DHT22;7138;49.246;9.100;2023-06-01T09:42:34;26.20;89.60
14119;DHT22;7138;49.246;9.100;2023-06-01T09:45:14;26.70;90.40
14119;DHT22;7138;49.246;9.100;2023-06-01T09:47:42;26.00;88.20
14119;DHT22;7138;49.246;9.100;2023-06-01T09:50:09;26.70;92.30
14119;DHT22;7138;49.246;9.100;2023-06-01T09:52:36;26.50;93.60
14119;DHT22;7138;49.246;9.100;2023-06-01T09:55:05;26.70;90.40
14119;DHT22;7138;49.246;9.100;2023-06-01T09:57:34;26.60;91.00
14119;DHT22;7138;49.246;9.100;2023-06-01T10:00:01;26.30;89.80
14119;DHT22;7138;49.246;9.100;2023-06-01T10:02:34;26.70;90.10
14119;DHT22;7138;49.246;9.100;2023-06-01T10:05:01;27.10;92.70
14119;DHT22;7138;49.246;9.100;2023-06-01T10:07:30;27.50;92.00
14119;DHT22;7138;49.246;9.100;2023-06-01T10:10:00;27.70;93.10
14119;DHT22;7138;49.246;9.100;2023-06-01T10:12:29;27.30;88.50
14119;DHT22;7138;49.246;9.100;2023-06-01T10:14:58;27.50;89.60
14119;DHT22;7138;49.246;9.100;2023-06-01T10:17:25;27.50;88.30
14119;DHT22;7138;49.246;9.100;2023-06-01T10:19:52;26.40;86.20
14119;DHT22;7138;49.246;9.100;2023-06-01T10:22:22;27.10;92.70
14119;DHT22;7138;49.246;9.100;2023-06-01T10:24:48;27.20;87.00
14119;DHT22;7138;49.246;9.100;2023-06-01T10:27:19;26.90;88.30
14119;DHT22;7138;49.246;9.100;2023-06-01T10:29:49;26.80;85.70
14119;DHT22;7138;49.246;9.100;2023-06-01T10:32:41;27.20;90.70
14119;DHT22;7138;49.246;9.100;2023-06-01T10:35:10;26.90;84.00
14119;DHT22;7138;49.246;9.100;2023-06-01T10:38:26;26.70;85.40
14119;DHT22;7138;49.246;9.100;2023-06-01T10:40:52;27.10;90.30
14119;DHT22;7138;49.246;9.100;2023-06-01T10:43:41;27.10;87.90
14119;DHT22;7138;49.246;9.100;2023-06-01T10:49:04;27.20;91.20
14119;DHT22;7138;49.246;9.100;2023-06-01T10:51:31;27.10;84.90
14119;DHT22;7138;49.246;9.100;2023-06-01T10:54:24;27.10;83.20
14119;DHT22;7138;49.246;9.100;2023-06-01T10:57:25;26.90;83.60
14119;DHT22;7138;49.246;9.100;2023-06-01T11:00:14;26.70;80.80
14119;DHT22;7138;49.246;9.100;2023-06-01T11:02:50;27.40;86.10
14119;DHT22;7138;49.246;9.100;2023-06-01T11:05:48;26.80;80.00
14119;DHT22;7138;49.246;9.100;2023-06-01T11:11:16;27.00;82.40
14119;DHT22;7138;49.246;9.100;2023-06-01T11:13:43;26.70;75.60
14119;DHT22;7138;49.246;9.100;2023-06-01T11:16:30;27.50;76.90
14119;DHT22;7138;49.246;9.100;2023-06-01T11:18:58;27.50;74.40
14119;DHT22;7138;49.246;9.100;2023-06-01T11:21:28;27.50;78.20
14119;DHT22;7138;49.246;9.100;2023-06-01T11:23:57;27.10;73.30
14119;DHT22;7138;49.246;9.100;2023-06-01T11:26:29;27.60;77.10
14119;DHT22;7138;49.246;9.100;2023-06-01T11:29:04;27.90;73.50
14119;DHT22;7138;49.246;9.100;2023-06-01T11:31:45;27.60;78.60
14119;DHT22;7138;49.246;9.100;2023-06-01T11:34:13;27.60;78.90
14119;DHT22;7138;49.246;9.100;2023-06-01T11:36:45;27.70;87.20
14119;DHT22;7138;49.246;9.100;2023-06-01T11:39:22;27.80;83.50
14119;DHT22;7138;49.246;9.100;2023-06-01T11:42:03;27.90;81.50
14119;DHT22;7138;49.246;9.100;2023-06-01T11:44:30;27.60;78.00
14119;DHT22;7138;49.246;9.100;2023-06-01T11:46:57;27.60;78.00
14119;DHT22;7138;49.246;9.100;2023-06-01T11:49:24;27.70;83.00
14119;DHT22;7138;49.246;9.100;2023-06-01T11:51:52;27.40;74.60
14119;DHT22;7138;49.246;9.100;2023-06-01T11:54:26;27.30;77.30
14119;DHT22;7138;49.246;9.100;2023-06-01T11:56:54;26.90;75.00
14119;DHT22;7138;49.246;9.100;2023-06-01T11:59:21;27.00;74.80
14119;DHT22;7138;49.246;9.100;2023-06-01T12:01:48;27.40;72.70
14119;DHT22;7138;49.246;9.100;2023-06-01T12:04:16;27.10;69.20
14119;DHT22;7138;49.246;9.100;2023-06-01T12:06:43;26.60;70.60
14119;DHT22;7138;49.246;9.100;2023-06-01T12:09:12;26.90;70.40
14119;DHT22;7138;49.246;9.100;2023-06-01T12:11:41;27.20;68.20
14119;DHT22;7138;49.246;9.100;2023-06-01T12:14:10;27.10;75.40
14119;DHT22;7138;49.246;9.100;2023-06-01T12:16:52;27.30;82.30
14119;DHT22;7138;49.246;9.100;2023-06-01T12:19:19;27.20;73.10
14119;DHT22;7138;49.246;9.100;2023-06-01T12:21:47;27.60;81.30
14119;DHT22;7138;49.246;9.100;2023-06-01T12:24:16;27.70;73.00
14119;DHT22;7138;49.246;9.100;2023-06-01T12:26:42;27.80;73.20
14119;DHT22;7138;49.246;9.100;2023-06-01T12:29:09;27.40;73.70
14119;DHT22;7138;49.246;9.100;2023-06-01T12:31:34;27.30;75.20
14119;DHT22;7138;49.246;9.100;2023-06-01T12:34:00;27.40;72.40
14119;DHT22;7138;49.246;9.100;2023-06-01T12:36:31;27.60;73.40
14119;DHT22;7138;49.246;9.100;2023-06-01T12:38:58;27.60;71.70
14119;DHT22;7138;49.246;9.100;2023-06-01T12:41:26;27.70;72.80
14119;DHT22;7138;49.246;9.100;2023-06-01T12:43:54;27.20;75.50
14119;DHT22;7138;49.246;9.100;2023-06-01T12:46:21;27.70;82.40
14119;DHT22;7138;49.246;9.100;2023-06-01T12:48:49;27.50;77.30
14119;DHT22;7138;49.246;9.100;2023-06-01T12:51:16;27.50;79.20
14119;DHT22;7138;49.246;9.100;2023-06-01T12:53:42;27.50;74.30
14119;DHT22;7138;49.246;9.100;2023-06-01T12:56:08;27.50;74.60
14119;DHT22;7138;49.246;9.100;2023-06-01T12:58:36;27.50;74.10
14119;DHT22;7138;49.246;9.100;2023-06-01T13:01:02;27.20;72.50
14119;DHT22;7138;49.246;9.100;2023-06-01T13:03:28;27.30;76.80
14119;DHT22;7138;49.246;9.100;2023-06-01T13:05:55;27.60;74.00
14119;DHT22;7138;49.246;9.100;2023-06-01T13:08:21;27.70;75.50
14119;DHT22;7138;49.246;9.100;2023-06-01T13:10:47;27.50;75.10
14119;DHT22;7138;49.246;9.100;2023-06-01T13:13:14;27.70;74.70
14119;DHT22;7138;49.246;9.100;2023-06-01T13:15:45;27.80;79.90
14119;DHT22;7138;49.246;9.100;2023-06-01T13:18:11;28.20;79.90
14119;DHT22;7138;49.246;9.100;2023-06-01T13:20:38;27.90;72.30
14119;DHT22;7138;49.246;9.100;2023-06-01T13:23:07;28.00;71.00
14119;DHT22;7138;49.246;9.100;2023-06-01T13:25:35;28.10;71.80
14119;DHT22;7138;49.246;9.100;2023-06-01T13:28:01;28.00;77.50
14119;DHT22;7138;49.246;9.100;2023-06-01T13:30:27;27.90;73.10
14119;DHT22;7138;49.246;9.100;2023-06-01T13:32:55;28.00;76.40
14119;DHT22;7138;49.246;9.100;2023-06-01T13:35:21;28.40;76.30
14119;DHT22;7138;49.246;9.100;2023-06-01T13:37:47;28.30;72.20
14119;DHT22;7138;49.246;9.100;2023-06-01T13:40:13;27.90;75.00
14119;DHT22;7138;49.246;9.100;2023-06-01T13:42:38;27.70;69.90
14119;DHT22;7138;49.246;9.100;2023-06-01T13:45:05;27.50;71.40
14119;DHT22;7138;49.246;9.100;2023-06-01T13:47:34;27.60;73.70
14119;DHT22;7138;49.246;9.100;2023-06-01T13:50:01;27.40;80.00
14119;DHT22;7138;49.246;9.100;2023-06-01T13:52:27;27.70;72.50
14119;DHT22;7138;49.246;9.100;2023-06-01T13:54:53;27.80;76.70
14119;DHT22;7138;49.246;9.100;2023-06-01T13:57:19;27.90;75.00
14119;DHT22;7138;49.246;9.100;2023-06-01T13:59:45;28.10;79.50
14119;DHT22;7138;49.246;9.100;2023-06-01T14:02:10;28.10;81.60
14119;DHT22;7138;49.246;9.100;2023-06-01T14:04:37;28.00;75.10
14119;DHT22;7138;49.246;9.100;2023-06-01T14:07:04;28.10;81.60
14119;DHT22;7138;49.246;9.100;2023-06-01T14:09:30;27.90;74.10
14119;DHT22;7138;49.246;9.100;2023-06-01T14:11:57;27.30;74.90
14119;DHT22;7138;49.246;9.100;2023-06-01T14:14:22;27.70;73.10
14119;DHT22;7138;49.246;9.100;2023-06-01T14:16:49;27.90;75.30
14119;DHT22;7138;49.246;9.100;2023-06-01T14:19:14;27.70;76.60
14119;DHT22;7138;49.246;9.100;2023-06-01T14:21:40;27.90;72.70
14119;DHT22;7138;49.246;9.100;2023-06-01T14:24:08;27.90;74.60
14119;DHT22;7138;49.246;9.100;2023-06-01T14:26:33;27.80;73.40
14119;DHT22;7138;49.246;9.100;2023-06-01T14:28:59;27.80;75.60
14119;DHT22;7138;49.246;9.100;2023-06-01T14:31:25;27.90;74.90
14119;DHT22;7138;49.246;9.100;2023-06-01T14:33:51;27.90;79.60
14119;DHT22;7138;49.246;9.100;2023-06-01T14:36:17;27.80;80.70
14119;DHT22;7138;49.246;9.100;2023-06-01T14:38:45;27.70;72.80
14119;DHT22;7138;49.246;9.100;2023-06-01T14:41:12;27.70;78.10
14119;DHT22;7138;49.246;9.100;2023-06-01T14:43:38;27.70;78.20
14119;DHT22;7138;49.246;9.100;2023-06-01T14:46:04;27.90;78.90
14119;DHT22;7138;49.246;9.100;2023-06-01T14:48:30;27.90;80.80
14119;DHT22;7138;49.246;9.100;2023-06-01T14:50:56;28.00;82.60
14119;DHT22;7138;49.246;9.100;2023-06-01T14:53:22;27.90;80.60
14119;DHT22;7138;49.246;9.100;2023-06-01T14:55:48;27.70;75.60
14119;DHT22;7138;49.246;9.100;2023-06-01T14:58:15;27.40;72.70
14119;DHT22;7138;49.246;9.100;2023-06-01T15:00:43;27.60;78.60
14119;DHT22;7138;49.246;9.100;2023-06-01T15:03:09;27.50;77.60
14119;DHT22;7138;49.246;9.100;2023-06-01T15:05:35;27.60;76.80
14119;DHT22;7138;49.246;9.100;2023-06-01T15:08:01;27.40;74.80
14119;DHT22;7138;49.246;9.100;2023-06-01T15:10:30;27.20;75.30
14119;DHT22;7138;49.246;9.100;2023-06-01T15:12:56;27.40;82.40
14119;DHT22;7138;49.246;9.100;2023-06-01T15:15:23;27.30;76.90
14119;DHT22;7138;49.246;9.100;2023-06-01T15:17:49;27.10;75.90
14119;DHT22;7138;49.246;9.100;2023-06-01T15:20:14;27.50;75.60
14119;DHT22;7138;49.246;9.100;2023-06-01T15:22:40;27.30;75.10
14119;DHT22;7138;49.246;9.100;2023-06-01T15:25:07;27.40;74.20
14119;DHT22;7138;49.246;9.100;2023-06-01T15:27:33;27.10;74.20
14119;DHT22;7138;49.246;9.100;2023-06-01T15:29:59;26.90;75.00
14119;DHT22;7138;49.246;9.100;2023-06-01T15:32:26;27.00;76.30
14119;DHT22;7138;49.246;9.100;2023-06-01T15:34:52;26.70;73.00
14119;DHT22;7138;49.246;9.100;2023-06-01T15:37:18;26.70;74.40
14119;DHT22;7138;49.246;9.100;2023-06-01T15:39:45;26.90;85.00
14119;DHT22;7138;49.246;9.100;2023-06-01T15:42:11;27.00;75.50
14119;DHT22;7138;49.246;9.100;2023-06-01T15:44:39;26.70;74.70
14119;DHT22;7138;49.246;9.100;2023-06-01T15:47:06;26.90;82.90
14119;DHT22;7138;49.246;9.100;2023-06-01T15:49:34;27.00;78.20
14119;DHT22;7138;49.246;9.100;2023-06-01T15:52:00;27.00;85.00
14119;DHT22;7138;49.246;9.100;2023-06-01T15:54:30;26.90;78.10
14119;DHT22;7138;49.246;9.100;2023-06-01T15:56:56;27.00;78.70